Pagrindinis puslapis
METAR-TAF:

METAR-TAF

Oro uostai :

Lar, Iranas

platuma: 27-40-26N, ilguma: 054-22-53E, Aukštis: 792 m

Dabartinis oras

Ataskaita buvo paskelbta 1 valandą ir 32 minutes, ne 21:00 UTC
Vėjas 4 kt iš Šiaurės
Temperatūra 35°C
Drėgmė 42%
Slėgis 1000 hPa
Matomumas: 8000 m

METAR: OISL 142100Z 01004KT 8000 NSC 35/20 Q0999 A2952

Laikas: 03:02 (22:32 UTC)

Prognozė

Ataskaita buvo paskelbta 5 valandos ir 2 minutes, ne 17:30 UTC
Prognozė galioja nuo 14 metu 18 UTC su 15 metu 24 UTC
Vėjas 8 kt iš Pietų/Pietvakarių
Matomumas: 7000 m
Tapsmas
nuo 15 metu 00 UTC su 15 metu 02 UTC
Vėjas 6 kt iš Pietryčių
Laikinai
nuo 15 metu 09 UTC su 15 metu 15 UTC
Vėjas 16 kt iš Pietų
Mažai debesys ne aukštis 4000 ft, aukštai iškilę kamuoliniai debesys.

TAF: OISL 141730Z 1418/1524 21008KT 7000 NSC BECMG 1500/1502 14006KT TEMPO 1509/1515 18016KT FEW040TCU

Orai ataskaitas ir orų prognozės (METAR, TAF).

turimą stotys yra geltonos ir raudonos taškus žemėlapyje.

Perkelti pele per norėdami pamatyti stoties vardą.

Tada spustelėkite, norėdami matyti oro stebėjimo ir prognozės.

Norėdami pakeisti žemėlapį: spustelėkite ant žalios mygtukų su juodo kryžiaus žemyn,; žalią mygtuką su brūkšneliu, jei norite nutolinti; arba žalių rodyklių gretimoms žemėlapius.


METAR-TAF: